sensor_id;sensor_type;location;lat;lon;timestamp;P1;durP1;ratioP1;P2;durP2;ratioP2
38972;SDS011;25333;50.762;4.470;2024-01-30T14:02:16;2.20;;;0.20;;
38972;SDS011;25333;50.762;4.470;2024-01-30T14:04:44;2.10;;;0.68;;
38972;SDS011;25333;50.762;4.470;2024-01-30T14:07:10;4.90;;;0.90;;
38972;SDS011;25333;50.762;4.470;2024-01-30T14:09:41;5.60;;;0.50;;
38972;SDS011;25333;50.762;4.470;2024-01-30T14:12:06;2.97;;;0.30;;
38972;SDS011;25333;50.762;4.470;2024-01-30T14:14:33;1.40;;;0.30;;
38972;SDS011;25333;50.762;4.470;2024-01-30T14:16:58;3.90;;;0.43;;
38972;SDS011;25333;50.762;4.470;2024-01-30T14:19:24;1.92;;;0.38;;
38972;SDS011;25333;50.762;4.470;2024-01-30T14:21:50;1.10;;;0.20;;
38972;SDS011;25333;50.762;4.470;2024-01-30T14:24:18;1.45;;;0.30;;
38972;SDS011;25333;50.762;4.470;2024-01-30T14:26:44;1.38;;;0.10;;
38972;SDS011;25333;50.762;4.470;2024-01-30T14:29:10;3.25;;;0.30;;
38972;SDS011;25333;50.762;4.470;2024-01-30T14:31:35;4.18;;;0.50;;
38972;SDS011;25333;50.762;4.470;2024-01-30T14:34:01;3.93;;;0.67;;
38972;SDS011;25333;50.762;4.470;2024-01-30T14:36:27;3.78;;;0.60;;
38972;SDS011;25333;50.762;4.470;2024-01-30T14:38:54;4.00;;;0.43;;
38972;SDS011;25333;50.762;4.470;2024-01-30T14:41:20;2.20;;;0.30;;
38972;SDS011;25333;50.762;4.470;2024-01-30T14:43:45;3.03;;;0.57;;
38972;SDS011;25333;50.762;4.470;2024-01-30T14:46:11;3.08;;;0.55;;
38972;SDS011;25333;50.762;4.470;2024-01-30T14:48:37;5.45;;;1.35;;
38972;SDS011;25333;50.762;4.470;2024-01-30T14:51:05;2.40;;;0.47;;
38972;SDS011;25333;50.762;4.470;2024-01-30T14:53:31;2.80;;;0.50;;
38972;SDS011;25333;50.762;4.470;2024-01-30T14:55:56;1.27;;;0.30;;
38972;SDS011;25333;50.762;4.470;2024-01-30T14:58:22;2.10;;;0.40;;
38972;SDS011;25333;50.762;4.470;2024-01-30T15:00:51;2.20;;;0.50;;
38972;SDS011;25333;50.762;4.470;2024-01-30T15:03:19;1.20;;;0.50;;
38972;SDS011;25333;50.762;4.470;2024-01-30T15:05:47;4.18;;;0.47;;
38972;SDS011;25333;50.762;4.470;2024-01-30T15:08:13;1.43;;;0.20;;
38972;SDS011;25333;50.762;4.470;2024-01-30T15:10:44;2.30;;;0.32;;
38972;SDS011;25333;50.762;4.470;2024-01-30T15:13:09;3.33;;;0.50;;
38972;SDS011;25333;50.762;4.470;2024-01-30T15:15:37;3.60;;;0.70;;
38972;SDS011;25333;50.762;4.470;2024-01-30T15:18:05;2.25;;;0.50;;
38972;SDS011;25333;50.762;4.470;2024-01-30T15:20:35;3.20;;;0.55;;
38972;SDS011;25333;50.762;4.470;2024-01-30T15:23:01;3.20;;;0.38;;
38972;SDS011;25333;50.762;4.470;2024-01-30T15:25:39;3.13;;;0.30;;
38972;SDS011;25333;50.762;4.470;2024-01-30T15:28:05;2.20;;;0.63;;
38972;SDS011;25333;50.762;4.470;2024-01-30T15:30:34;2.22;;;0.70;;
38972;SDS011;25333;50.762;4.470;2024-01-30T15:33:02;0.77;;;0.20;;
38972;SDS011;25333;50.762;4.470;2024-01-30T15:35:30;1.80;;;0.80;;
38972;SDS011;25333;50.762;4.470;2024-01-30T15:37:56;1.25;;;0.10;;
38972;SDS011;25333;50.762;4.470;2024-01-30T15:40:21;2.00;;;0.50;;
38972;SDS011;25333;50.762;4.470;2024-01-30T15:42:52;1.57;;;0.70;;
38972;SDS011;25333;50.762;4.470;2024-01-30T15:49:27;3.20;;;0.40;;
38972;SDS011;25333;50.762;4.470;2024-01-30T15:55:49;2.22;;;0.50;;
38972;SDS011;25333;50.762;4.470;2024-01-30T15:58:15;1.37;;;0.20;;
38972;SDS011;25333;50.762;4.470;2024-01-30T16:00:44;3.40;;;0.73;;
38972;SDS011;25333;50.762;4.470;2024-01-30T16:03:14;0.30;;;0.10;;
38972;SDS011;25333;50.762;4.470;2024-01-30T16:12:08;4.72;;;1.40;;
38972;SDS011;25333;50.762;4.470;2024-01-30T16:14:36;3.67;;;0.63;;
38972;SDS011;25333;50.762;4.470;2024-01-30T16:17:02;3.13;;;0.63;;
38972;SDS011;25333;50.762;4.470;2024-01-30T16:19:33;1.15;;;0.65;;
38972;SDS011;25333;50.762;4.470;2024-01-30T16:21:59;1.65;;;0.40;;
38972;SDS011;25333;50.762;4.470;2024-01-30T16:24:27;2.40;;;0.75;;
38972;SDS011;25333;50.762;4.470;2024-01-30T16:26:55;3.03;;;0.65;;
38972;SDS011;25333;50.762;4.470;2024-01-30T16:29:22;2.42;;;1.00;;
38972;SDS011;25333;50.762;4.470;2024-01-30T16:31:48;2.30;;;0.70;;
38972;SDS011;25333;50.762;4.470;2024-01-30T16:34:18;1.95;;;0.43;;
38972;SDS011;25333;50.762;4.470;2024-01-30T16:36:49;2.35;;;0.55;;
38972;SDS011;25333;50.762;4.470;2024-01-30T16:39:14;1.88;;;0.43;;
38972;SDS011;25333;50.762;4.470;2024-01-30T16:41:40;1.95;;;0.25;;
38972;SDS011;25333;50.762;4.470;2024-01-30T16:44:09;3.65;;;1.05;;
38972;SDS011;25333;50.762;4.470;2024-01-30T16:46:37;2.85;;;0.60;;
38972;SDS011;25333;50.762;4.470;2024-01-30T16:49:04;2.45;;;0.50;;
38972;SDS011;25333;50.762;4.470;2024-01-30T16:51:30;2.60;;;0.60;;
38972;SDS011;25333;50.762;4.470;2024-01-30T16:53:56;3.65;;;0.40;;
38972;SDS011;25333;50.762;4.470;2024-01-30T16:56:25;2.60;;;0.38;;
38972;SDS011;25333;50.762;4.470;2024-01-30T16:58:51;1.05;;;0.57;;
38972;SDS011;25333;50.762;4.470;2024-01-30T17:01:17;1.38;;;0.30;;
38972;SDS011;25333;50.762;4.470;2024-01-30T17:03:42;3.47;;;0.47;;
38972;SDS011;25333;50.762;4.470;2024-01-30T17:06:12;1.42;;;0.43;;
38972;SDS011;25333;50.762;4.470;2024-01-30T17:08:38;1.05;;;0.50;;
38972;SDS011;25333;50.762;4.470;2024-01-30T17:11:03;1.05;;;0.45;;
38972;SDS011;25333;50.762;4.470;2024-01-30T17:13:31;3.10;;;0.47;;
38972;SDS011;25333;50.762;4.470;2024-01-30T17:15:57;2.77;;;0.60;;
38972;SDS011;25333;50.762;4.470;2024-01-30T17:18:23;2.30;;;0.63;;
38972;SDS011;25333;50.762;4.470;2024-01-30T17:20:51;1.77;;;0.50;;
38972;SDS011;25333;50.762;4.470;2024-01-30T17:23:20;2.55;;;0.70;;
38972;SDS011;25333;50.762;4.470;2024-01-30T17:25:47;1.77;;;0.50;;
38972;SDS011;25333;50.762;4.470;2024-01-30T17:28:14;3.00;;;0.60;;
38972;SDS011;25333;50.762;4.470;2024-01-30T17:30:40;3.10;;;0.75;;
38972;SDS011;25333;50.762;4.470;2024-01-30T17:33:06;2.43;;;0.93;;
38972;SDS011;25333;50.762;4.470;2024-01-30T17:35:31;2.55;;;0.55;;
38972;SDS011;25333;50.762;4.470;2024-01-30T17:37:57;2.70;;;0.80;;
38972;SDS011;25333;50.762;4.470;2024-01-30T17:40:29;3.47;;;1.38;;
38972;SDS011;25333;50.762;4.470;2024-01-30T17:42:55;4.22;;;1.50;;
38972;SDS011;25333;50.762;4.470;2024-01-30T17:48:39;4.65;;;1.13;;
38972;SDS011;25333;50.762;4.470;2024-01-30T17:51:09;3.33;;;1.50;;
38972;SDS011;25333;50.762;4.470;2024-01-30T17:53:35;6.38;;;1.55;;
38972;SDS011;25333;50.762;4.470;2024-01-30T17:56:43;3.58;;;1.48;;
38972;SDS011;25333;50.762;4.470;2024-01-30T17:59:11;2.90;;;1.30;;
38972;SDS011;25333;50.762;4.470;2024-01-30T18:01:39;2.78;;;1.17;;
38972;SDS011;25333;50.762;4.470;2024-01-30T18:04:14;5.05;;;1.30;;
38972;SDS011;25333;50.762;4.470;2024-01-30T18:07:00;4.05;;;1.95;;
38972;SDS011;25333;50.762;4.470;2024-01-30T18:09:26;3.50;;;1.65;;
38972;SDS011;25333;50.762;4.470;2024-01-30T18:11:52;4.35;;;1.80;;
38972;SDS011;25333;50.762;4.470;2024-01-30T18:14:20;3.03;;;1.27;;
38972;SDS011;25333;50.762;4.470;2024-01-30T18:16:55;2.28;;;1.38;;
38972;SDS011;25333;50.762;4.470;2024-01-30T18:19:23;3.42;;;1.23;;
38972;SDS011;25333;50.762;4.470;2024-01-30T18:21:49;3.65;;;1.35;;
38972;SDS011;25333;50.762;4.470;2024-01-30T18:24:15;2.97;;;1.48;;
38972;SDS011;25333;50.762;4.470;2024-01-30T18:26:41;5.53;;;2.47;;
38972;SDS011;25333;50.762;4.470;2024-01-30T18:29:09;8.63;;;3.50;;
38972;SDS011;25333;50.762;4.470;2024-01-30T18:31:35;4.28;;;2.85;;
38972;SDS011;25333;50.762;4.470;2024-01-30T18:34:06;4.55;;;2.45;;
38972;SDS011;25333;50.762;4.470;2024-01-30T18:36:33;4.57;;;1.90;;
38972;SDS011;25333;50.762;4.470;2024-01-30T18:39:01;3.92;;;2.03;;
38972;SDS011;25333;50.762;4.470;2024-01-30T18:41:29;3.08;;;2.30;;
38972;SDS011;25333;50.762;4.470;2024-01-30T18:43:57;4.07;;;2.25;;
38972;SDS011;25333;50.762;4.470;2024-01-30T18:46:23;4.95;;;2.60;;
38972;SDS011;25333;50.762;4.470;2024-01-30T18:48:49;3.57;;;1.70;;
38972;SDS011;25333;50.762;4.470;2024-01-30T18:51:18;6.05;;;2.80;;
38972;SDS011;25333;50.762;4.470;2024-01-30T18:53:44;6.38;;;2.60;;
38972;SDS011;25333;50.762;4.470;2024-01-30T18:56:11;3.87;;;2.30;;
38972;SDS011;25333;50.762;4.470;2024-01-30T18:58:41;5.17;;;1.60;;
38972;SDS011;25333;50.762;4.470;2024-01-30T19:01:07;4.47;;;1.95;;
38972;SDS011;25333;50.762;4.470;2024-01-30T19:03:33;4.45;;;1.90;;
38972;SDS011;25333;50.762;4.470;2024-01-30T19:05:59;5.40;;;2.40;;
38972;SDS011;25333;50.762;4.470;2024-01-30T19:08:25;5.30;;;2.92;;
38972;SDS011;25333;50.762;4.470;2024-01-30T19:10:52;4.00;;;2.03;;
38972;SDS011;25333;50.762;4.470;2024-01-30T19:13:19;10.38;;;2.78;;
38972;SDS011;25333;50.762;4.470;2024-01-30T19:15:44;5.40;;;2.40;;
38972;SDS011;25333;50.762;4.470;2024-01-30T19:18:10;7.03;;;2.33;;
38972;SDS011;25333;50.762;4.470;2024-01-30T19:20:36;8.15;;;4.35;;
38972;SDS011;25333;50.762;4.470;2024-01-30T19:23:02;5.75;;;2.70;;
38972;SDS011;25333;50.762;4.470;2024-01-30T19:25:28;5.25;;;1.75;;
38972;SDS011;25333;50.762;4.470;2024-01-30T19:27:55;4.90;;;1.73;;
38972;SDS011;25333;50.762;4.470;2024-01-30T19:30:24;6.30;;;2.60;;
38972;SDS011;25333;50.762;4.470;2024-01-30T19:32:50;4.22;;;2.28;;
38972;SDS011;25333;50.762;4.470;2024-01-30T19:35:16;7.55;;;2.03;;
38972;SDS011;25333;50.762;4.470;2024-01-30T19:38:00;5.07;;;2.53;;
38972;SDS011;25333;50.762;4.470;2024-01-30T19:47:26;7.22;;;2.33;;
38972;SDS011;25333;50.762;4.470;2024-01-30T19:50:46;4.45;;;2.00;;
38972;SDS011;25333;50.762;4.470;2024-01-30T19:54:02;4.57;;;2.28;;
38972;SDS011;25333;50.762;4.470;2024-01-30T19:57:03;5.85;;;2.92;;
